Time;durP1;ratioP1;P1;durP2;ratioP2;P2;SDS_P1;SDS_P2;PMS_P1;PMS_P2;Temp;Humidity;BMP_temperature;BMP_pressure;BME280_temperature;BME280_humidity;BME280_pressure;Samples;Min_cycle;Max_cycle;Signal;HPM_P1;HPM_P2
2022/06/15 00:01:58;;;;;;;7.32;3.53;;;;;;;;;;5043207;28;20057;-49
2022/06/15 00:04:24;;;;;;;6.70;3.33;;;;;;;;;;5043818;28;20570;-44
2022/06/15 00:06:50;;;;;;;6.63;3.28;;;;;;;;;;5041392;28;20168;-48
2022/06/15 00:09:16;;;;;;;7.55;3.40;;;;;;;;;;5041422;28;20025;-49
2022/06/15 00:11:43;;;;;;;7.95;3.55;;;;;;;;;;5041729;28;20033;-48
2022/06/15 00:14:16;;;;;;;6.13;3.58;;;;;;;;;;5039787;28;20127;-47
2022/06/15 00:16:42;;;;;;;8.73;3.60;;;;;;;;;;5044277;28;20083;-44
2022/06/15 00:19:08;;;;;;;11.07;3.70;;;;;;;;;;5042488;28;20040;-47
2022/06/15 00:21:34;;;;;;;8.02;3.53;;;;;;;;;;5038683;28;20036;-46
2022/06/15 00:24:00;;;;;;;4.43;2.83;;;;;;;;;;5039940;28;20036;-44
2022/06/15 00:26:26;;;;;;;10.50;3.28;;;;;;;;;;5044313;28;20033;-47
2022/06/15 00:28:53;;;;;;;6.70;3.75;;;;;;;;;;5043592;28;20053;-47
2022/06/15 00:31:19;;;;;;;8.02;3.65;;;;;;;;;;5043044;28;20075;-45
2022/06/15 00:33:46;;;;;;;8.98;3.97;;;;;;;;;;5041244;28;20033;-46
2022/06/15 00:36:15;;;;;;;8.45;3.65;;;;;;;;;;5042928;28;20497;-51
2022/06/15 00:38:47;;;;;;;6.32;3.50;;;;;;;;;;5045009;28;20027;-45
2022/06/15 00:41:20;;;;;;;12.63;3.78;;;;;;;;;;5045622;28;20127;-44
2022/06/15 00:43:52;;;;;;;7.93;3.63;;;;;;;;;;5042443;28;20044;-45
2022/06/15 00:46:44;;;;;;;6.13;3.33;;;;;;;;;;5044585;28;20398;-45
2022/06/15 00:49:36;;;;;;;10.85;3.42;;;;;;;;;;5044168;28;20051;-44
2022/06/15 00:52:09;;;;;;;7.15;3.17;;;;;;;;;;5035810;28;20507;-47
2022/06/15 00:54:36;;;;;;;4.30;3.40;;;;;;;;;;5039372;28;20025;-44
2022/06/15 00:57:04;;;;;;;10.50;3.60;;;;;;;;;;5043685;28;20028;-47
2022/06/15 00:59:34;;;;;;;6.38;3.53;;;;;;;;;;5041821;28;20028;-45
2022/06/15 01:02:00;;;;;;;7.30;3.88;;;;;;;;;;5039712;28;20366;-44
2022/06/15 01:04:32;;;;;;;6.07;3.38;;;;;;;;;;5040625;28;20555;-44
2022/06/15 01:07:13;;;;;;;5.60;3.45;;;;;;;;;;5042301;28;20539;-44
2022/06/15 01:09:56;;;;;;;7.15;3.30;;;;;;;;;;5041223;28;20033;-44
2022/06/15 01:12:37;;;;;;;8.43;2.95;;;;;;;;;;5039126;28;20041;-50
2022/06/15 01:15:25;;;;;;;6.00;3.38;;;;;;;;;;5040332;28;20049;-47
2022/06/15 01:18:17;;;;;;;5.38;3.45;;;;;;;;;;5040845;28;20041;-45
2022/06/15 01:20:55;;;;;;;4.75;3.25;;;;;;;;;;5041993;28;20048;-46
2022/06/15 01:23:51;;;;;;;7.97;3.17;;;;;;;;;;5040955;28;20144;-45
2022/06/15 01:26:54;;;;;;;8.50;3.35;;;;;;;;;;5037082;28;20052;-44
2022/06/15 01:29:38;;;;;;;11.05;3.67;;;;;;;;;;5040140;28;20172;-44
2022/06/15 01:32:18;;;;;;;7.97;3.47;;;;;;;;;;5043933;28;20135;-45
2022/06/15 01:34:50;;;;;;;6.68;3.40;;;;;;;;;;5040631;28;20037;-43
2022/06/15 01:37:38;;;;;;;5.65;3.70;;;;;;;;;;5044452;28;20103;-47
2022/06/15 01:40:08;;;;;;;11.27;3.53;;;;;;;;;;5044174;28;20060;-45
2022/06/15 01:42:43;;;;;;;8.50;3.67;;;;;;;;;;5041679;28;20127;-47
2022/06/15 01:45:17;;;;;;;5.53;3.25;;;;;;;;;;5040064;28;20040;-45
2022/06/15 01:47:44;;;;;;;6.53;3.75;;;;;;;;;;5042486;28;20056;-46
2022/06/15 01:50:16;;;;;;;12.05;3.97;;;;;;;;;;5044731;28;20076;-44
2022/06/15 01:53:04;;;;;;;8.48;3.10;;;;;;;;;;5040195;28;20052;-46
2022/06/15 01:55:47;;;;;;;11.77;3.42;;;;;;;;;;5042089;28;20036;-46
2022/06/15 01:58:16;;;;;;;6.20;3.13;;;;;;;;;;5041731;28;20647;-48
2022/06/15 02:00:51;;;;;;;6.18;3.38;;;;;;;;;;5040635;28;20437;-44
2022/06/15 02:03:44;;;;;;;5.78;3.30;;;;;;;;;;5040942;28;20104;-44
2022/06/15 02:06:27;;;;;;;13.40;3.85;;;;;;;;;;5038822;28;20021;-45
2022/06/15 02:09:15;;;;;;;8.75;3.47;;;;;;;;;;5036976;28;20528;-45
2022/06/15 02:11:42;;;;;;;6.82;3.58;;;;;;;;;;5037457;28;20059;-46
2022/06/15 02:14:38;;;;;;;6.38;3.28;;;;;;;;;;5043691;28;20033;-44
2022/06/15 02:17:08;;;;;;;8.48;3.30;;;;;;;;;;5043753;28;20035;-45
2022/06/15 02:19:39;;;;;;;10.55;3.65;;;;;;;;;;5047807;28;20030;-45
2022/06/15 02:22:09;;;;;;;6.30;3.30;;;;;;;;;;5045174;28;20451;-44
2022/06/15 02:24:36;;;;;;;5.10;2.85;;;;;;;;;;5045679;28;20132;-44
2022/06/15 02:27:05;;;;;;;10.85;3.20;;;;;;;;;;5045678;28;20071;-47
2022/06/15 02:29:34;;;;;;;4.97;3.25;;;;;;;;;;5043486;28;20044;-44
2022/06/15 02:32:00;;;;;;;14.57;3.15;;;;;;;;;;5041285;28;20103;-46
2022/06/15 02:34:27;;;;;;;4.78;3.10;;;;;;;;;;5042236;28;20061;-44
2022/06/15 02:36:53;;;;;;;5.97;3.33;;;;;;;;;;5042138;28;20143;-44
2022/06/15 02:39:19;;;;;;;9.55;3.45;;;;;;;;;;5038208;28;20036;-47
2022/06/15 02:41:44;;;;;;;4.63;3.13;;;;;;;;;;5044067;28;20021;-43
2022/06/15 02:44:16;;;;;;;6.32;2.88;;;;;;;;;;5043960;28;20033;-45
2022/06/15 02:46:45;;;;;;;5.10;3.25;;;;;;;;;;5041343;28;20025;-47
2022/06/15 02:49:11;;;;;;;10.05;3.53;;;;;;;;;;5045751;28;20063;-45
2022/06/15 02:51:40;;;;;;;9.13;3.03;;;;;;;;;;5045268;28;20505;-44
2022/06/15 02:54:30;;;;;;;7.28;3.00;;;;;;;;;;5046650;28;20044;-46
2022/06/15 02:56:56;;;;;;;9.20;3.10;;;;;;;;;;5044312;28;20432;-45
2022/06/15 02:59:22;;;;;;;7.10;3.15;;;;;;;;;;5040767;28;20033;-44
2022/06/15 03:01:48;;;;;;;6.90;3.50;;;;;;;;;;5042443;28;20043;-45
2022/06/15 03:04:14;;;;;;;5.88;3.17;;;;;;;;;;5045966;28;20120;-44
2022/06/15 03:06:40;;;;;;;11.65;3.22;;;;;;;;;;5032053;28;20481;-44
2022/06/15 03:09:06;;;;;;;7.63;3.08;;;;;;;;;;5043896;28;20060;-44
2022/06/15 03:11:31;;;;;;;5.38;3.28;;;;;;;;;;5041105;28;20029;-45
2022/06/15 03:13:57;;;;;;;8.02;2.92;;;;;;;;;;5041603;28;20049;-48
2022/06/15 03:16:23;;;;;;;5.97;3.25;;;;;;;;;;5041283;28;20034;-43
2022/06/15 03:18:49;;;;;;;3.58;3.13;;;;;;;;;;5043435;28;20029;-44
2022/06/15 03:21:15;;;;;;;5.75;3.20;;;;;;;;;;5039772;28;20038;-44
2022/06/15 03:23:41;;;;;;;6.13;2.67;;;;;;;;;;5041774;28;20513;-45
2022/06/15 03:26:08;;;;;;;7.45;3.20;;;;;;;;;;5043595;28;20033;-44
2022/06/15 03:28:36;;;;;;;7.70;2.80;;;;;;;;;;5044432;28;20037;-45
2022/06/15 03:31:03;;;;;;;5.35;3.10;;;;;;;;;;5046123;28;20036;-47
2022/06/15 03:33:29;;;;;;;5.70;3.00;;;;;;;;;;5042667;28;20030;-45
2022/06/15 03:35:55;;;;;;;3.72;2.65;;;;;;;;;;5043073;28;20062;-46
2022/06/15 03:38:21;;;;;;;9.45;3.30;;;;;;;;;;5039006;28;20102;-45
2022/06/15 03:40:48;;;;;;;4.57;3.10;;;;;;;;;;5040607;28;20091;-47
2022/06/15 03:43:15;;;;;;;5.03;2.88;;;;;;;;;;5043900;28;20074;-46
2022/06/15 03:45:42;;;;;;;5.15;2.70;;;;;;;;;;5043480;28;20037;-45
2022/06/15 03:48:09;;;;;;;4.47;2.50;;;;;;;;;;5042964;28;20115;-44
2022/06/15 03:50:35;;;;;;;5.50;2.88;;;;;;;;;;5043854;28;20037;-46
2022/06/15 03:53:01;;;;;;;6.40;2.40;;;;;;;;;;5045241;28;20094;-44
2022/06/15 03:55:28;;;;;;;4.28;2.67;;;;;;;;;;5046513;28;20115;-45
2022/06/15 03:57:54;;;;;;;10.52;2.95;;;;;;;;;;5044941;28;20033;-44
2022/06/15 04:00:21;;;;;;;5.90;2.50;;;;;;;;;;5042384;28;20132;-45
2022/06/15 04:02:47;;;;;;;5.18;2.92;;;;;;;;;;5042753;28;20073;-46
2022/06/15 04:05:23;;;;;;;4.65;2.63;;;;;;;;;;5042510;28;20053;-45
2022/06/15 04:10:35;;;;;;;2.80;2.42;;;;;;;;;;5038649;28;20139;-45
2022/06/15 04:13:02;;;;;;;5.00;2.90;;;;;;;;;;5042991;28;20021;-43
2022/06/15 04:15:30;;;;;;;5.15;2.95;;;;;;;;;;5039178;28;20067;-45
2022/06/15 04:17:56;;;;;;;9.13;3.03;;;;;;;;;;5041115;28;20033;-48
2022/06/15 04:20:36;;;;;;;3.80;2.83;;;;;;;;;;5041928;28;20082;-44
2022/06/15 04:23:07;;;;;;;7.72;3.60;;;;;;;;;;5045168;28;20127;-44
2022/06/15 04:25:42;;;;;;;4.17;2.60;;;;;;;;;;5042038;28;20036;-44
2022/06/15 04:28:10;;;;;;;5.10;2.95;;;;;;;;;;5044253;28;20027;-46
2022/06/15 04:30:36;;;;;;;5.97;3.05;;;;;;;;;;5038915;28;20718;-43
2022/06/15 04:33:02;;;;;;;3.03;2.83;;;;;;;;;;5043183;28;20025;-47
2022/06/15 04:35:28;;;;;;;14.73;3.38;;;;;;;;;;5037963;28;20490;-45
2022/06/15 04:37:54;;;;;;;4.25;2.70;;;;;;;;;;5042299;28;20033;-49
2022/06/15 04:40:20;;;;;;;13.15;3.10;;;;;;;;;;5041423;28;20113;-44
2022/06/15 04:42:46;;;;;;;6.53;2.63;;;;;;;;;;5042120;28;20075;-44
2022/06/15 04:45:14;;;;;;;14.25;3.00;;;;;;;;;;5042610;28;20060;-45
2022/06/15 04:47:39;;;;;;;6.22;3.50;;;;;;;;;;5040193;28;20108;-44
2022/06/15 04:50:07;;;;;;;6.68;3.03;;;;;;;;;;5039532;28;20111;-44
2022/06/15 04:52:34;;;;;;;9.75;3.97;;;;;;;;;;5040740;28;20037;-44
2022/06/15 04:54:59;;;;;;;3.70;3.05;;;;;;;;;;5038843;28;20406;-48
2022/06/15 04:57:25;;;;;;;8.63;3.10;;;;;;;;;;5038401;28;20029;-44
2022/06/15 04:59:51;;;;;;;10.32;3.20;;;;;;;;;;5035826;28;20021;-45
2022/06/15 05:02:17;;;;;;;5.57;2.78;;;;;;;;;;5041602;28;20385;-45
2022/06/15 05:04:43;;;;;;;10.45;3.33;;;;;;;;;;5041891;28;20133;-49
2022/06/15 05:07:09;;;;;;;7.03;3.05;;;;;;;;;;5033015;28;20052;-44
2022/06/15 05:09:34;;;;;;;7.03;2.92;;;;;;;;;;5042367;28;20087;-49
2022/06/15 05:12:00;;;;;;;5.95;2.90;;;;;;;;;;5043746;28;20074;-44
2022/06/15 05:14:27;;;;;;;6.85;3.58;;;;;;;;;;5036738;28;20044;-44
2022/06/15 05:16:52;;;;;;;10.25;3.65;;;;;;;;;;5033923;28;20109;-44
2022/06/15 05:19:18;;;;;;;7.45;4.95;;;;;;;;;;5030534;28;20120;-45
2022/06/15 05:21:45;;;;;;;7.30;5.20;;;;;;;;;;5030925;28;20372;-46
2022/06/15 05:24:11;;;;;;;9.25;5.90;;;;;;;;;;5032871;28;20048;-46
2022/06/15 05:26:38;;;;;;;12.35;5.55;;;;;;;;;;5035826;28;20028;-44
2022/06/15 05:29:04;;;;;;;7.50;4.45;;;;;;;;;;5037426;28;20033;-49
2022/06/15 05:31:30;;;;;;;7.88;4.63;;;;;;;;;;5038526;28;20039;-46
2022/06/15 05:33:57;;;;;;;10.02;4.20;;;;;;;;;;5038816;28;20039;-44
2022/06/15 05:36:30;;;;;;;14.10;5.00;;;;;;;;;;5041035;28;20076;-45
2022/06/15 05:38:56;;;;;;;10.65;4.70;;;;;;;;;;5042477;28;20025;-48
2022/06/15 05:41:23;;;;;;;7.43;4.50;;;;;;;;;;5037852;28;20397;-47
2022/06/15 05:43:52;;;;;;;6.30;3.70;;;;;;;;;;5039503;28;20033;-47
2022/06/15 05:46:26;;;;;;;8.52;3.92;;;;;;;;;;5036514;28;20025;-44
2022/06/15 05:48:53;;;;;;;8.27;3.28;;;;;;;;;;5034771;28;20474;-44
2022/06/15 05:51:19;;;;;;;9.65;3.15;;;;;;;;;;5039601;28;20462;-44
2022/06/15 05:53:45;;;;;;;6.03;2.80;;;;;;;;;;5033117;28;20052;-44
2022/06/15 05:56:10;;;;;;;5.97;3.20;;;;;;;;;;5035159;28;20025;-46
2022/06/15 05:58:36;;;;;;;11.82;3.22;;;;;;;;;;5034734;28;20038;-45
2022/06/15 06:01:10;;;;;;;7.95;3.28;;;;;;;;;;5037044;28;20035;-44
2022/06/15 06:03:37;;;;;;;13.82;3.33;;;;;;;;;;5038436;28;20060;-44
2022/06/15 06:06:03;;;;;;;8.35;3.47;;;;;;;;;;5041913;28;20070;-44
2022/06/15 06:08:30;;;;;;;5.70;3.38;;;;;;;;;;5038058;28;20017;-44
2022/06/15 06:10:55;;;;;;;7.55;3.33;;;;;;;;;;5041285;28;20029;-44
2022/06/15 06:13:21;;;;;;;9.45;4.00;;;;;;;;;;5041094;28;20052;-44
2022/06/15 06:15:47;;;;;;;11.43;3.92;;;;;;;;;;5038021;28;20410;-46
2022/06/15 06:18:12;;;;;;;12.48;3.75;;;;;;;;;;5041596;28;20378;-43
2022/06/15 06:20:39;;;;;;;10.02;3.97;;;;;;;;;;5039450;28;20029;-44
2022/06/15 06:23:04;;;;;;;5.25;3.50;;;;;;;;;;5038606;28;20113;-47
2022/06/15 06:25:30;;;;;;;6.88;3.72;;;;;;;;;;5045732;28;20163;-46
2022/06/15 06:27:56;;;;;;;7.10;3.80;;;;;;;;;;5039598;28;20032;-44
2022/06/15 06:30:22;;;;;;;9.68;3.55;;;;;;;;;;5035360;28;20624;-45
2022/06/15 06:32:49;;;;;;;4.40;3.25;;;;;;;;;;5040065;28;20042;-44
2022/06/15 06:35:14;;;;;;;13.38;3.30;;;;;;;;;;5039814;28;20120;-44
2022/06/15 06:37:41;;;;;;;7.88;3.45;;;;;;;;;;5040894;28;20124;-45
2022/06/15 06:40:10;;;;;;;8.68;3.85;;;;;;;;;;5042751;28;20026;-44
2022/06/15 06:42:35;;;;;;;8.10;3.45;;;;;;;;;;5040836;28;20041;-46
2022/06/15 06:45:01;;;;;;;7.10;3.38;;;;;;;;;;5042353;28;20029;-45
2022/06/15 06:47:28;;;;;;;13.80;4.22;;;;;;;;;;5039891;28;20105;-46
2022/06/15 06:49:53;;;;;;;8.27;3.53;;;;;;;;;;5040515;28;20120;-45
2022/06/15 06:52:19;;;;;;;9.63;3.38;;;;;;;;;;5041817;28;20117;-46
2022/06/15 06:54:45;;;;;;;11.60;3.65;;;;;;;;;;5043016;28;20107;-44
2022/06/15 06:57:10;;;;;;;5.10;3.60;;;;;;;;;;5040972;28;20037;-44
2022/06/15 06:59:36;;;;;;;8.10;3.65;;;;;;;;;;5043689;28;20532;-46
2022/06/15 07:02:02;;;;;;;13.70;4.13;;;;;;;;;;5044570;28;20025;-45
2022/06/15 07:04:29;;;;;;;7.47;3.58;;;;;;;;;;5044067;28;20072;-45
2022/06/15 07:06:57;;;;;;;9.63;2.97;;;;;;;;;;5043846;28;20667;-44
2022/06/15 07:09:23;;;;;;;4.47;3.10;;;;;;;;;;5042305;28;20040;-45
2022/06/15 07:11:48;;;;;;;8.85;3.35;;;;;;;;;;5045084;28;20033;-46
2022/06/15 07:14:14;;;;;;;10.15;2.78;;;;;;;;;;5041925;28;20906;-49
2022/06/15 07:16:41;;;;;;;9.45;3.00;;;;;;;;;;5045584;28;20674;-46
2022/06/15 07:19:07;;;;;;;3.80;2.65;;;;;;;;;;5045554;28;20105;-45
2022/06/15 07:21:34;;;;;;;6.88;3.05;;;;;;;;;;5046872;28;20504;-47
2022/06/15 07:24:00;;;;;;;5.13;2.97;;;;;;;;;;5042214;28;20060;-47
2022/06/15 07:26:29;;;;;;;8.27;2.95;;;;;;;;;;5042024;28;20061;-44
2022/06/15 07:28:55;;;;;;;10.40;3.35;;;;;;;;;;5041579;28;20049;-46
2022/06/15 07:31:26;;;;;;;7.40;3.30;;;;;;;;;;5040769;28;20032;-44
2022/06/15 07:33:51;;;;;;;8.35;3.30;;;;;;;;;;5041717;28;20545;-44
2022/06/15 07:36:18;;;;;;;7.80;3.05;;;;;;;;;;5043171;28;20390;-45
2022/06/15 07:38:44;;;;;;;27.83;4.18;;;;;;;;;;5044550;28;20465;-45
2022/06/15 07:41:09;;;;;;;8.38;3.40;;;;;;;;;;5042408;28;20033;-45
2022/06/15 07:43:36;;;;;;;10.23;3.40;;;;;;;;;;5044028;28;20021;-44
2022/06/15 07:46:02;;;;;;;8.13;3.20;;;;;;;;;;5042802;28;20048;-45
2022/06/15 07:52:05;;;;;;;12.57;3.53;;;;;;;;;;5038679;28;20029;-45
2022/06/15 07:54:31;;;;;;;10.57;3.70;;;;;;;;;;5061409;28;20029;-45
2022/06/15 07:56:57;;;;;;;20.30;3.13;;;;;;;;;;5057830;28;20093;-45
2022/06/15 07:59:23;;;;;;;5.90;3.00;;;;;;;;;;5061828;28;20102;-44
2022/06/15 08:01:49;;;;;;;9.13;2.80;;;;;;;;;;5058804;28;20048;-47
2022/06/15 08:04:16;;;;;;;11.43;3.15;;;;;;;;;;5061176;28;20124;-45
2022/06/15 08:06:44;;;;;;;8.10;3.60;;;;;;;;;;5056226;28;20033;-44
2022/06/15 08:09:13;;;;;;;13.00;4.03;;;;;;;;;;5055838;28;20068;-44
2022/06/15 08:12:11;;;;;;;11.38;3.38;;;;;;;;;;5057617;28;20070;-44
2022/06/15 08:14:26;;;;;;;10.40;3.42;;;;;;;;;;5056831;28;20044;-45
2022/06/15 08:16:52;;;;;;;13.02;3.78;;;;;;;;;;5059164;28;20040;-42
2022/06/15 08:19:17;;;;;;;15.48;4.53;;;;;;;;;;5059926;28;20257;-45
2022/06/15 08:21:43;;;;;;;13.60;4.15;;;;;;;;;;5059879;28;20051;-46
2022/06/15 08:24:09;;;;;;;22.92;4.50;;;;;;;;;;5057796;28;20033;-46
2022/06/15 08:26:37;;;;;;;108.55;7.75;;;;;;;;;;5061522;28;20028;-45
2022/06/15 08:29:08;;;;;;;12.18;3.78;;;;;;;;;;5044471;28;20072;-45
2022/06/15 08:31:35;;;;;;;10.85;3.72;;;;;;;;;;5041886;28;20033;-45
2022/06/15 08:34:03;;;;;;;17.90;3.90;;;;;;;;;;5041022;28;20180;-44
2022/06/15 08:36:29;;;;;;;15.18;4.80;;;;;;;;;;5042287;28;20033;-45
2022/06/15 08:38:56;;;;;;;11.68;4.15;;;;;;;;;;5043043;28;20036;-48
2022/06/15 08:41:31;;;;;;;8.45;3.80;;;;;;;;;;5042300;28;20029;-45
2022/06/15 08:44:03;;;;;;;6.53;3.60;;;;;;;;;;5040399;28;20025;-45
2022/06/15 08:46:58;;;;;;;7.65;3.50;;;;;;;;;;5042222;28;20665;-45
2022/06/15 08:49:35;;;;;;;15.02;3.63;;;;;;;;;;5042905;28;20144;-44
2022/06/15 08:52:13;;;;;;;7.72;3.30;;;;;;;;;;5040446;28;20486;-45
2022/06/15 08:54:43;;;;;;;10.40;3.40;;;;;;;;;;5040113;28;20477;-45
2022/06/15 08:57:19;;;;;;;9.40;3.13;;;;;;;;;;5042325;28;20087;-44
2022/06/15 08:59:54;;;;;;;8.35;3.10;;;;;;;;;;5043538;28;20127;-45
2022/06/15 09:02:35;;;;;;;6.05;3.10;;;;;;;;;;5044819;28;20104;-48
2022/06/15 09:05:27;;;;;;;5.40;3.00;;;;;;;;;;5043547;28;20096;-47
2022/06/15 09:08:18;;;;;;;;;;;;;;;;;;5040620;28;20130;-46
2022/06/15 09:10:54;;;;;;;10.30;3.30;;;;;;;;;;5040405;28;19960;-45
2022/06/15 09:13:26;;;;;;;5.03;2.95;;;;;;;;;;5043208;28;20025;-49
2022/06/15 09:16:13;;;;;;;12.07;3.17;;;;;;;;;;5041180;28;20385;-44
2022/06/15 09:18:57;;;;;;;9.98;3.20;;;;;;;;;;5039313;28;20025;-45
2022/06/15 09:21:32;;;;;;;52.58;6.55;;;;;;;;;;5043419;28;20025;-46
2022/06/15 09:24:05;;;;;;;6.80;3.00;;;;;;;;;;5039699;28;20040;-48
2022/06/15 09:26:36;;;;;;;16.85;3.00;;;;;;;;;;5041362;28;20041;-47
2022/06/15 09:29:17;;;;;;;6.53;3.08;;;;;;;;;;5042446;28;20126;-47
2022/06/15 09:31:49;;;;;;;13.50;3.33;;;;;;;;;;5041712;28;20033;-45
2022/06/15 09:34:25;;;;;;;6.07;2.90;;;;;;;;;;5039774;28;20302;-46
2022/06/15 09:36:55;;;;;;;5.50;2.75;;;;;;;;;;5042895;28;20448;-47
2022/06/15 09:39:22;;;;;;;7.35;3.00;;;;;;;;;;5038027;28;20032;-47
2022/06/15 09:42:09;;;;;;;9.25;3.13;;;;;;;;;;5044633;28;20084;-45
2022/06/15 09:44:59;;;;;;;6.90;2.80;;;;;;;;;;5041963;28;20036;-46
2022/06/15 09:47:45;;;;;;;7.75;3.38;;;;;;;;;;5037336;28;20489;-45
2022/06/15 09:50:13;;;;;;;5.57;2.80;;;;;;;;;;5038565;28;20044;-47
2022/06/15 09:52:58;;;;;;;5.10;2.95;;;;;;;;;;5039535;28;20489;-45
2022/06/15 09:55:29;;;;;;;6.18;2.95;;;;;;;;;;5042669;28;20021;-48
2022/06/15 09:57:55;;;;;;;;;;;;;;;;;;5043065;28;20044;-45
2022/06/15 10:00:21;;;;;;;5.15;3.03;;;;;;;;;;5042440;28;19917;-45
2022/06/15 10:02:51;;;;;;;9.57;3.20;;;;;;;;;;5040955;28;20064;-47
2022/06/15 10:05:38;;;;;;;8.95;2.80;;;;;;;;;;5042062;28;20059;-45
2022/06/15 10:08:08;;;;;;;10.95;2.67;;;;;;;;;;5041166;28;20025;-46
2022/06/15 10:10:41;;;;;;;7.82;3.08;;;;;;;;;;5043546;28;20076;-45
2022/06/15 10:13:26;;;;;;;11.60;3.67;;;;;;;;;;5042534;28;20037;-45
2022/06/15 10:15:55;;;;;;;14.52;3.50;;;;;;;;;;5041857;28;20041;-44
2022/06/15 10:18:31;;;;;;;9.63;3.05;;;;;;;;;;5041354;28;20087;-46
2022/06/15 10:21:12;;;;;;;8.15;3.00;;;;;;;;;;5042304;28;20116;-47
2022/06/15 10:24:01;;;;;;;5.03;3.20;;;;;;;;;;5041039;28;20048;-46
2022/06/15 10:26:39;;;;;;;90.93;9.23;;;;;;;;;;5036023;28;20033;-48
2022/06/15 10:29:14;;;;;;;6.88;2.70;;;;;;;;;;5039014;28;20486;-45
2022/06/15 10:31:41;;;;;;;9.00;2.88;;;;;;;;;;5039485;28;20806;-46
2022/06/15 10:34:20;;;;;;;7.78;3.10;;;;;;;;;;5042332;28;20120;-46
2022/06/15 10:36:52;;;;;;;4.38;2.85;;;;;;;;;;5046039;28;20040;-47
2022/06/15 10:39:30;;;;;;;10.75;3.67;;;;;;;;;;5040851;28;20033;-49
2022/06/15 10:42:09;;;;;;;6.45;2.85;;;;;;;;;;5046834;28;20152;-47
2022/06/15 10:44:39;;;;;;;6.60;2.78;;;;;;;;;;5041895;28;20043;-51
2022/06/15 10:47:18;;;;;;;9.50;3.00;;;;;;;;;;5039960;28;21488;-45
2022/06/15 10:49:52;;;;;;;5.82;2.80;;;;;;;;;;5039898;28;20037;-46
2022/06/15 10:52:25;;;;;;;6.28;3.00;;;;;;;;;;5047296;28;20017;-46
2022/06/15 11:03:41;;;;;;;8.95;3.30;;;;;;;;;;5043018;28;20497;-47
2022/06/15 11:06:08;;;;;;;9.18;3.22;;;;;;;;;;5044484;28;20041;-43
2022/06/15 11:08:35;;;;;;;9.80;3.08;;;;;;;;;;5037559;28;20081;-51
2022/06/15 11:11:24;;;;;;;5.90;3.38;;;;;;;;;;5042433;28;20031;-46
2022/06/15 11:13:57;;;;;;;6.70;3.40;;;;;;;;;;5042499;28;20025;-49
2022/06/15 11:19:16;;;;;;;9.35;2.97;;;;;;;;;;5048142;28;20489;-45
2022/06/15 11:21:51;;;;;;;8.52;3.40;;;;;;;;;;5042153;28;20036;-45
2022/06/15 11:24:40;;;;;;;8.65;3.30;;;;;;;;;;5045213;28;20075;-45
2022/06/15 11:27:16;;;;;;;9.98;3.40;;;;;;;;;;5042597;28;20103;-47
2022/06/15 11:29:52;;;;;;;8.55;3.90;;;;;;;;;;5041870;28;20223;-45
2022/06/15 11:32:42;;;;;;;8.10;3.53;;;;;;;;;;5042865;28;20075;-45
2022/06/15 11:35:14;;;;;;;8.38;3.65;;;;;;;;;;5043596;28;20067;-46
2022/06/15 11:37:51;;;;;;;;;;;;;;;;;;5044653;28;20024;-48
2022/06/15 11:40:24;;;;;;;10.77;3.30;;;;;;;;;;5045297;28;19917;-45
2022/06/15 11:42:51;;;;;;;5.57;3.55;;;;;;;;;;5043004;28;20111;-45
2022/06/15 11:45:21;;;;;;;9.75;3.05;;;;;;;;;;5042757;28;20021;-45
2022/06/15 11:48:26;;;;;;;8.93;3.30;;;;;;;;;;5043497;28;20029;-45
2022/06/15 11:50:59;;;;;;;10.55;3.30;;;;;;;;;;5040311;28;20044;-46
2022/06/15 11:53:46;;;;;;;14.13;3.40;;;;;;;;;;5042680;28;20095;-47
2022/06/15 11:56:15;;;;;;;13.35;3.65;;;;;;;;;;5041275;28;20524;-45
2022/06/15 11:58:50;;;;;;;8.07;3.30;;;;;;;;;;5044644;28;20055;-47
2022/06/15 12:01:32;;;;;;;3.90;2.92;;;;;;;;;;5049090;28;20033;-46
2022/06/15 12:04:20;;;;;;;7.60;3.35;;;;;;;;;;5044874;28;20401;-45
2022/06/15 12:07:34;;;;;;;8.13;3.00;;;;;;;;;;5042227;28;20048;-46
2022/06/15 12:10:05;;;;;;;6.55;3.20;;;;;;;;;;5022912;28;20562;-50
2022/06/15 12:12:37;;;;;;;18.45;4.07;;;;;;;;;;5019226;28;20576;-46
2022/06/15 12:15:21;;;;;;;18.17;5.13;;;;;;;;;;5018341;28;20033;-46
2022/06/15 12:18:12;;;;;;;18.17;4.53;;;;;;;;;;5021971;28;20037;-47
2022/06/15 12:20:49;;;;;;;11.70;3.83;;;;;;;;;;5016698;28;20032;-46
2022/06/15 12:23:56;;;;;;;8.15;4.13;;;;;;;;;;5014412;28;20513;-45
2022/06/15 12:26:30;;;;;;;7.22;4.18;;;;;;;;;;5013718;28;20052;-47
2022/06/15 12:29:01;;;;;;;7.72;4.03;;;;;;;;;;5020815;28;20207;-46
2022/06/15 12:31:42;;;;;;;9.85;4.18;;;;;;;;;;5017228;28;20042;-45
2022/06/15 12:34:13;;;;;;;11.05;3.97;;;;;;;;;;5019036;28;20126;-46
2022/06/15 12:36:55;;;;;;;11.88;4.35;;;;;;;;;;5022582;28;20029;-45
2022/06/15 12:39:51;;;;;;;11.95;3.70;;;;;;;;;;5018908;28;20029;-45
2022/06/15 12:42:17;;;;;;;7.05;3.58;;;;;;;;;;5020251;28;20382;-46
2022/06/15 12:44:51;;;;;;;7.35;4.10;;;;;;;;;;5036949;28;20041;-46
2022/06/15 12:47:20;;;;;;;11.00;3.80;;;;;;;;;;5039429;28;20029;-45
2022/06/15 12:50:04;;;;;;;20.83;4.43;;;;;;;;;;5041298;28;20048;-45
2022/06/15 12:52:44;;;;;;;15.63;4.15;;;;;;;;;;5038915;28;20516;-46
2022/06/15 12:55:24;;;;;;;25.70;5.03;;;;;;;;;;5040984;28;20102;-45
2022/06/15 12:58:32;;;;;;;15.27;4.15;;;;;;;;;;5043307;28;20100;-47
2022/06/15 13:01:07;;;;;;;11.27;4.45;;;;;;;;;;5000685;28;20022;-45
2022/06/15 13:03:45;;;;;;;8.75;4.75;;;;;;;;;;4997886;28;20048;-47
2022/06/15 13:06:22;;;;;;;10.85;5.05;;;;;;;;;;4996811;28;20069;-46
2022/06/15 13:09:11;;;;;;;15.43;4.75;;;;;;;;;;4998877;28;20494;-48
2022/06/15 13:12:04;;;;;;;11.95;4.30;;;;;;;;;;5000338;28;20041;-48
2022/06/15 13:14:36;;;;;;;8.82;3.80;;;;;;;;;;5001966;28;20042;-46
2022/06/15 13:17:13;;;;;;;16.10;4.38;;;;;;;;;;5002491;28;20597;-45
2022/06/15 13:19:52;;;;;;;8.85;3.78;;;;;;;;;;5000211;28;20116;-51
2022/06/15 13:22:28;;;;;;;8.63;3.90;;;;;;;;;;5003141;28;20077;-46
2022/06/15 13:25:07;;;;;;;20.20;4.05;;;;;;;;;;5000526;28;20565;-50
2022/06/15 13:27:40;;;;;;;19.52;3.83;;;;;;;;;;4999175;28;20192;-47
2022/06/15 13:30:18;;;;;;;8.25;3.55;;;;;;;;;;5000148;28;20148;-46
2022/06/15 13:33:01;;;;;;;13.32;3.75;;;;;;;;;;4997439;28;20033;-49
2022/06/15 13:35:30;;;;;;;10.73;3.92;;;;;;;;;;5028763;28;20064;-46
2022/06/15 13:38:00;;;;;;;10.55;3.90;;;;;;;;;;5036533;28;20099;-50
2022/06/15 13:41:09;;;;;;;14.40;3.88;;;;;;;;;;5044138;28;20063;-50
2022/06/15 13:43:43;;;;;;;11.95;3.85;;;;;;;;;;5035717;28;20052;-51
2022/06/15 13:46:27;;;;;;;15.00;3.13;;;;;;;;;;5042467;28;20040;-45
2022/06/15 13:49:14;;;;;;;6.82;3.40;;;;;;;;;;5039298;28;20124;-45
2022/06/15 13:51:47;;;;;;;9.90;2.85;;;;;;;;;;5043139;28;20028;-47
2022/06/15 13:54:15;;;;;;;8.00;3.08;;;;;;;;;;5040472;28;20696;-47
2022/06/15 13:57:13;;;;;;;13.07;3.72;;;;;;;;;;5039529;28;20036;-47
2022/06/15 14:00:09;;;;;;;13.82;3.67;;;;;;;;;;5042826;28;20042;-45
2022/06/15 14:03:05;;;;;;;9.13;3.20;;;;;;;;;;5042187;28;20043;-48
2022/06/15 14:05:44;;;;;;;16.38;2.90;;;;;;;;;;5041444;28;20086;-45
2022/06/15 14:08:19;;;;;;;6.65;2.97;;;;;;;;;;5037401;28;20057;-46
2022/06/15 14:11:33;;;;;;;13.98;3.35;;;;;;;;;;5042165;28;20532;-44
2022/06/15 14:14:17;;;;;;;11.32;3.60;;;;;;;;;;5022807;28;20127;-45
2022/06/15 14:17:12;;;;;;;6.10;3.05;;;;;;;;;;5020510;28;20116;-47
2022/06/15 14:19:41;;;;;;;9.65;2.97;;;;;;;;;;5021280;28;20560;-45
2022/06/15 14:22:13;;;;;;;6.68;2.72;;;;;;;;;;5022966;28;20033;-47
2022/06/15 14:24:40;;;;;;;8.38;3.00;;;;;;;;;;5020342;28;20038;-46
2022/06/15 14:27:20;;;;;;;9.70;2.90;;;;;;;;;;5018724;28;20025;-45
2022/06/15 14:29:47;;;;;;;9.47;2.80;;;;;;;;;;5022244;28;20057;-45
2022/06/15 14:32:34;;;;;;;10.60;2.80;;;;;;;;;;5022465;28;20037;-45
2022/06/15 14:35:16;;;;;;;5.65;2.47;;;;;;;;;;5022744;28;20034;-46
2022/06/15 14:37:43;;;;;;;8.50;2.38;;;;;;;;;;5022143;28;20053;-45
2022/06/15 14:40:27;;;;;;;11.82;3.03;;;;;;;;;;5023479;28;20030;-49
2022/06/15 14:42:56;;;;;;;6.43;2.90;;;;;;;;;;5020185;28;20038;-49
2022/06/15 14:45:50;;;;;;;6.88;2.60;;;;;;;;;;5020879;28;20132;-47
2022/06/15 14:48:35;;;;;;;4.22;2.42;;;;;;;;;;5022423;28;21735;-45
2022/06/15 14:51:14;;;;;;;5.82;2.83;;;;;;;;;;5036855;28;20520;-47
2022/06/15 14:53:52;;;;;;;4.30;2.88;;;;;;;;;;5037797;28;20039;-46
2022/06/15 14:56:19;;;;;;;5.78;2.10;;;;;;;;;;5038553;28;20042;-47
2022/06/15 14:59:05;;;;;;;5.50;2.50;;;;;;;;;;5040928;28;20424;-45
2022/06/15 15:01:31;;;;;;;5.22;2.60;;;;;;;;;;5035326;28;20056;-46
2022/06/15 15:04:19;;;;;;;11.90;2.63;;;;;;;;;;5037510;28;20029;-46
2022/06/15 15:06:51;;;;;;;3.75;2.15;;;;;;;;;;5039444;28;20020;-48
2022/06/15 15:09:18;;;;;;;10.55;3.20;;;;;;;;;;5037252;28;20501;-45
2022/06/15 15:11:45;;;;;;;11.52;2.80;;;;;;;;;;5029043;28;20041;-45
2022/06/15 15:14:12;;;;;;;8.32;2.72;;;;;;;;;;5035268;28;20028;-47
2022/06/15 15:16:37;;;;;;;6.32;2.30;;;;;;;;;;5044720;28;20029;-48
2022/06/15 15:19:06;;;;;;;4.65;2.10;;;;;;;;;;5043200;28;20040;-47
2022/06/15 15:21:43;;;;;;;4.70;2.65;;;;;;;;;;5042422;28;20048;-45
2022/06/15 15:24:27;;;;;;;9.50;2.53;;;;;;;;;;5042526;28;20107;-46
2022/06/15 15:27:06;;;;;;;12.40;2.30;;;;;;;;;;5044043;28;20063;-46
2022/06/15 15:35:33;;;;;;;6.30;1.87;;;;;;;;;;5043878;28;20082;-46
2022/06/15 15:38:17;;;;;;;3.50;2.20;;;;;;;;;;5043548;28;20025;-45
2022/06/15 15:40:48;;;;;;;10.05;2.00;;;;;;;;;;5044502;28;20405;-47